Campina Grande do Sul, Brazil
Current Conditions -  °F | °C
As of 7:00 PM on Thursday 18 Dec 2014 (Local Time) from SBBI Reporting Station
Rain Showers Rain Showers  
Wind Chill: 70°   Ceiling: 3000
Heat Index: 70°   Visibility: 6mi
Dew Point: 66°   Wind: 7mph
Humidity: 88%   Direction: 110°ESE
Pressure: 29.91"   Gusts: NA
Location:  25.31°S, 49.06°W
Report Text: SBBI 182100Z 11006KT 9999 VCSH SCT005 BKN030 21/19 Q1013 RETS
Loading
Personal Weather Stations






























Interactive Weather Map New forecast layout! Learn more

10-Day Weather Forecast

Advertisements
Track Severe Weather on mobile